sensor_id;sensor_type;location;lat;lon;timestamp;temperature;humidity
37460;DHT22;23318;50.966;5.284;2023-02-18T00:02:09;10.60;99.90
37460;DHT22;23318;50.966;5.284;2023-02-18T00:04:35;10.70;99.90
37460;DHT22;23318;50.966;5.284;2023-02-18T00:07:01;10.70;99.90
37460;DHT22;23318;50.966;5.284;2023-02-18T00:09:26;10.70;99.90
37460;DHT22;23318;50.966;5.284;2023-02-18T00:11:52;10.70;99.90
37460;DHT22;23318;50.966;5.284;2023-02-18T00:14:18;10.60;99.90
37460;DHT22;23318;50.966;5.284;2023-02-18T00:16:44;10.60;99.90
37460;DHT22;23318;50.966;5.284;2023-02-18T00:19:13;10.70;99.90
37460;DHT22;23318;50.966;5.284;2023-02-18T00:21:39;10.70;99.90
37460;DHT22;23318;50.966;5.284;2023-02-18T00:24:05;10.70;99.90
37460;DHT22;23318;50.966;5.284;2023-02-18T00:26:32;10.80;99.90
37460;DHT22;23318;50.966;5.284;2023-02-18T00:28:58;10.70;99.90
37460;DHT22;23318;50.966;5.284;2023-02-18T00:31:29;10.70;99.90
37460;DHT22;23318;50.966;5.284;2023-02-18T00:33:57;10.80;99.90
37460;DHT22;23318;50.966;5.284;2023-02-18T00:36:23;10.70;99.90
37460;DHT22;23318;50.966;5.284;2023-02-18T00:38:57;10.60;99.90
37460;DHT22;23318;50.966;5.284;2023-02-18T00:41:25;10.70;99.90
37460;DHT22;23318;50.966;5.284;2023-02-18T00:43:51;10.70;99.90
37460;DHT22;23318;50.966;5.284;2023-02-18T00:46:17;10.70;99.90
37460;DHT22;23318;50.966;5.284;2023-02-18T00:48:43;10.70;99.90
37460;DHT22;23318;50.966;5.284;2023-02-18T00:51:09;10.70;99.90
37460;DHT22;23318;50.966;5.284;2023-02-18T00:53:35;10.70;99.90
37460;DHT22;23318;50.966;5.284;2023-02-18T00:56:01;10.70;99.90
37460;DHT22;23318;50.966;5.284;2023-02-18T00:58:27;10.70;99.90
37460;DHT22;23318;50.966;5.284;2023-02-18T01:00:53;10.70;99.90
37460;DHT22;23318;50.966;5.284;2023-02-18T01:03:19;10.80;99.90
37460;DHT22;23318;50.966;5.284;2023-02-18T01:05:45;11.00;99.90
37460;DHT22;23318;50.966;5.284;2023-02-18T01:08:11;10.80;99.90
37460;DHT22;23318;50.966;5.284;2023-02-18T01:10:41;10.80;99.90
37460;DHT22;23318;50.966;5.284;2023-02-18T01:13:07;10.80;99.90
37460;DHT22;23318;50.966;5.284;2023-02-18T01:15:33;10.80;99.90
37460;DHT22;23318;50.966;5.284;2023-02-18T01:17:58;10.70;99.90
37460;DHT22;23318;50.966;5.284;2023-02-18T01:20:24;10.70;99.90
37460;DHT22;23318;50.966;5.284;2023-02-18T01:22:51;10.80;99.90
37460;DHT22;23318;50.966;5.284;2023-02-18T01:25:17;10.80;99.90
37460;DHT22;23318;50.966;5.284;2023-02-18T01:27:42;10.90;99.90
37460;DHT22;23318;50.966;5.284;2023-02-18T01:30:12;10.80;99.90
37460;DHT22;23318;50.966;5.284;2023-02-18T01:32:38;10.80;99.90
37460;DHT22;23318;50.966;5.284;2023-02-18T01:35:05;10.70;99.90
37460;DHT22;23318;50.966;5.284;2023-02-18T01:37:32;10.90;99.90
37460;DHT22;23318;50.966;5.284;2023-02-18T01:39:57;10.80;99.90
37460;DHT22;23318;50.966;5.284;2023-02-18T01:42:26;10.80;99.90
37460;DHT22;23318;50.966;5.284;2023-02-18T01:44:52;10.80;99.90
37460;DHT22;23318;50.966;5.284;2023-02-18T01:47:18;10.80;99.90
37460;DHT22;23318;50.966;5.284;2023-02-18T01:49:49;10.80;99.90
37460;DHT22;23318;50.966;5.284;2023-02-18T01:52:18;10.80;99.90
37460;DHT22;23318;50.966;5.284;2023-02-18T01:54:53;10.80;99.90
37460;DHT22;23318;50.966;5.284;2023-02-18T01:57:29;10.90;99.90
37460;DHT22;23318;50.966;5.284;2023-02-18T02:00:05;10.80;99.90
37460;DHT22;23318;50.966;5.284;2023-02-18T02:02:34;10.80;99.90
37460;DHT22;23318;50.966;5.284;2023-02-18T02:05:02;10.80;99.90
37460;DHT22;23318;50.966;5.284;2023-02-18T02:07:28;10.70;99.90
37460;DHT22;23318;50.966;5.284;2023-02-18T02:09:55;10.70;99.90
37460;DHT22;23318;50.966;5.284;2023-02-18T02:12:44;10.40;99.90
37460;DHT22;23318;50.966;5.284;2023-02-18T02:15:23;10.50;99.90
37460;DHT22;23318;50.966;5.284;2023-02-18T02:18:17;10.50;99.90
37460;DHT22;23318;50.966;5.284;2023-02-18T02:26:57;10.40;99.90
37460;DHT22;23318;50.966;5.284;2023-02-18T02:38:00;10.40;99.90
37460;DHT22;23318;50.966;5.284;2023-02-18T02:40:48;10.40;99.90
37460;DHT22;23318;50.966;5.284;2023-02-18T02:43:57;10.30;99.90
37460;DHT22;23318;50.966;5.284;2023-02-18T02:46:30;10.30;99.90
37460;DHT22;23318;50.966;5.284;2023-02-18T02:52:04;10.30;99.90
37460;DHT22;23318;50.966;5.284;2023-02-18T02:54:32;10.30;99.90
37460;DHT22;23318;50.966;5.284;2023-02-18T02:59:57;10.30;99.90
37460;DHT22;23318;50.966;5.284;2023-02-18T03:05:58;10.30;99.90
37460;DHT22;23318;50.966;5.284;2023-02-18T03:08:39;10.30;99.90
37460;DHT22;23318;50.966;5.284;2023-02-18T03:11:09;10.20;99.90
37460;DHT22;23318;50.966;5.284;2023-02-18T03:16:49;10.30;99.90
37460;DHT22;23318;50.966;5.284;2023-02-18T03:22:06;10.30;99.90
37460;DHT22;23318;50.966;5.284;2023-02-18T03:24:33;10.30;99.90
37460;DHT22;23318;50.966;5.284;2023-02-18T03:27:44;10.30;99.90
37460;DHT22;23318;50.966;5.284;2023-02-18T03:30:25;10.30;99.90
37460;DHT22;23318;50.966;5.284;2023-02-18T03:32:57;10.20;99.90
37460;DHT22;23318;50.966;5.284;2023-02-18T03:35:25;10.30;99.90
37460;DHT22;23318;50.966;5.284;2023-02-18T03:40:55;10.30;99.90
37460;DHT22;23318;50.966;5.284;2023-02-18T03:43:21;10.20;99.90
37460;DHT22;23318;50.966;5.284;2023-02-18T03:45:47;10.30;99.90
37460;DHT22;23318;50.966;5.284;2023-02-18T03:48:13;10.20;99.90
37460;DHT22;23318;50.966;5.284;2023-02-18T03:50:38;10.20;99.90
37460;DHT22;23318;50.966;5.284;2023-02-18T03:53:04;10.20;99.90
37460;DHT22;23318;50.966;5.284;2023-02-18T03:55:30;10.20;99.90
37460;DHT22;23318;50.966;5.284;2023-02-18T03:57:55;10.20;99.90
37460;DHT22;23318;50.966;5.284;2023-02-18T04:00:21;10.20;99.90
37460;DHT22;23318;50.966;5.284;2023-02-18T04:02:47;10.20;99.90
37460;DHT22;23318;50.966;5.284;2023-02-18T04:05:12;10.20;99.90
37460;DHT22;23318;50.966;5.284;2023-02-18T04:07:38;10.20;99.90
37460;DHT22;23318;50.966;5.284;2023-02-18T04:10:05;10.20;99.90
37460;DHT22;23318;50.966;5.284;2023-02-18T04:12:31;10.10;99.90
37460;DHT22;23318;50.966;5.284;2023-02-18T04:14:57;10.20;99.90
37460;DHT22;23318;50.966;5.284;2023-02-18T04:17:22;10.20;99.90
37460;DHT22;23318;50.966;5.284;2023-02-18T04:19:48;10.20;99.90
37460;DHT22;23318;50.966;5.284;2023-02-18T04:22:14;10.20;99.90
37460;DHT22;23318;50.966;5.284;2023-02-18T04:24:39;10.20;99.90
37460;DHT22;23318;50.966;5.284;2023-02-18T04:27:05;10.20;99.90
37460;DHT22;23318;50.966;5.284;2023-02-18T04:29:31;10.20;99.90
37460;DHT22;23318;50.966;5.284;2023-02-18T04:31:56;10.30;99.90
37460;DHT22;23318;50.966;5.284;2023-02-18T04:34:22;10.20;99.90
37460;DHT22;23318;50.966;5.284;2023-02-18T04:36:48;10.20;99.90
37460;DHT22;23318;50.966;5.284;2023-02-18T04:39:13;10.20;99.90
37460;DHT22;23318;50.966;5.284;2023-02-18T04:41:39;10.20;99.90
37460;DHT22;23318;50.966;5.284;2023-02-18T04:44:05;10.20;99.90
37460;DHT22;23318;50.966;5.284;2023-02-18T04:46:31;10.20;99.90
37460;DHT22;23318;50.966;5.284;2023-02-18T04:48:57;10.20;99.90
37460;DHT22;23318;50.966;5.284;2023-02-18T04:51:22;10.30;99.90
37460;DHT22;23318;50.966;5.284;2023-02-18T04:53:48;10.30;99.90
37460;DHT22;23318;50.966;5.284;2023-02-18T04:56:14;10.30;99.90
37460;DHT22;23318;50.966;5.284;2023-02-18T04:58:39;10.40;99.90
37460;DHT22;23318;50.966;5.284;2023-02-18T05:01:05;10.30;99.90
37460;DHT22;23318;50.966;5.284;2023-02-18T05:03:31;10.30;99.90
37460;DHT22;23318;50.966;5.284;2023-02-18T05:05:57;10.30;99.90
37460;DHT22;23318;50.966;5.284;2023-02-18T05:08:23;10.40;99.90
37460;DHT22;23318;50.966;5.284;2023-02-18T05:10:48;10.30;99.90
37460;DHT22;23318;50.966;5.284;2023-02-18T05:13:15;10.30;99.90
37460;DHT22;23318;50.966;5.284;2023-02-18T05:15:40;10.30;99.90
37460;DHT22;23318;50.966;5.284;2023-02-18T05:18:06;10.30;99.90
37460;DHT22;23318;50.966;5.284;2023-02-18T05:20:32;10.30;99.90
37460;DHT22;23318;50.966;5.284;2023-02-18T05:22:58;10.30;99.90
37460;DHT22;23318;50.966;5.284;2023-02-18T05:25:24;10.40;99.90
37460;DHT22;23318;50.966;5.284;2023-02-18T05:27:50;10.40;99.90
37460;DHT22;23318;50.966;5.284;2023-02-18T05:30:15;10.40;99.90
37460;DHT22;23318;50.966;5.284;2023-02-18T05:32:41;10.50;99.90
37460;DHT22;23318;50.966;5.284;2023-02-18T05:35:07;10.40;99.90
37460;DHT22;23318;50.966;5.284;2023-02-18T05:37:33;10.40;99.90
37460;DHT22;23318;50.966;5.284;2023-02-18T05:39:59;10.40;99.90
37460;DHT22;23318;50.966;5.284;2023-02-18T05:42:24;10.40;99.90
37460;DHT22;23318;50.966;5.284;2023-02-18T05:44:50;10.30;99.90
37460;DHT22;23318;50.966;5.284;2023-02-18T05:47:16;10.20;99.90
37460;DHT22;23318;50.966;5.284;2023-02-18T05:49:42;10.10;99.90
37460;DHT22;23318;50.966;5.284;2023-02-18T05:52:08;10.10;99.90
37460;DHT22;23318;50.966;5.284;2023-02-18T05:54:35;10.00;99.90
37460;DHT22;23318;50.966;5.284;2023-02-18T05:57:01;10.00;99.90
37460;DHT22;23318;50.966;5.284;2023-02-18T05:59:27;9.90;99.90
37460;DHT22;23318;50.966;5.284;2023-02-18T06:01:53;9.90;99.90
37460;DHT22;23318;50.966;5.284;2023-02-18T06:04:19;9.90;99.90
37460;DHT22;23318;50.966;5.284;2023-02-18T06:06:45;9.90;99.90
37460;DHT22;23318;50.966;5.284;2023-02-18T06:09:11;9.80;99.90
37460;DHT22;23318;50.966;5.284;2023-02-18T06:11:37;9.80;99.90
37460;DHT22;23318;50.966;5.284;2023-02-18T06:14:03;9.80;99.90
37460;DHT22;23318;50.966;5.284;2023-02-18T06:16:29;9.80;99.90
37460;DHT22;23318;50.966;5.284;2023-02-18T06:18:55;9.80;99.90
37460;DHT22;23318;50.966;5.284;2023-02-18T06:21:20;9.80;99.90
37460;DHT22;23318;50.966;5.284;2023-02-18T06:23:46;9.80;99.90
37460;DHT22;23318;50.966;5.284;2023-02-18T06:26:12;9.80;99.90
37460;DHT22;23318;50.966;5.284;2023-02-18T06:28:38;9.80;99.90
37460;DHT22;23318;50.966;5.284;2023-02-18T06:31:04;9.80;99.90
37460;DHT22;23318;50.966;5.284;2023-02-18T06:33:29;9.70;99.90
37460;DHT22;23318;50.966;5.284;2023-02-18T06:36:00;9.70;99.90
37460;DHT22;23318;50.966;5.284;2023-02-18T06:38:26;9.70;99.90
37460;DHT22;23318;50.966;5.284;2023-02-18T06:40:52;9.60;99.90
37460;DHT22;23318;50.966;5.284;2023-02-18T06:43:19;9.60;99.90
37460;DHT22;23318;50.966;5.284;2023-02-18T06:45:44;9.60;99.90
37460;DHT22;23318;50.966;5.284;2023-02-18T06:48:11;9.60;99.90
37460;DHT22;23318;50.966;5.284;2023-02-18T06:50:37;9.60;99.90
37460;DHT22;23318;50.966;5.284;2023-02-18T06:53:03;9.70;99.90
37460;DHT22;23318;50.966;5.284;2023-02-18T06:55:28;9.70;99.90
37460;DHT22;23318;50.966;5.284;2023-02-18T06:57:54;9.70;99.90
37460;DHT22;23318;50.966;5.284;2023-02-18T07:00:20;9.60;99.90
37460;DHT22;23318;50.966;5.284;2023-02-18T07:02:47;9.70;99.90
37460;DHT22;23318;50.966;5.284;2023-02-18T07:05:12;9.70;99.90
37460;DHT22;23318;50.966;5.284;2023-02-18T07:07:38;9.70;99.90
37460;DHT22;23318;50.966;5.284;2023-02-18T07:10:04;9.70;99.90
37460;DHT22;23318;50.966;5.284;2023-02-18T07:12:30;9.70;99.90
37460;DHT22;23318;50.966;5.284;2023-02-18T07:14:56;9.70;99.90
37460;DHT22;23318;50.966;5.284;2023-02-18T07:17:22;9.70;99.90
37460;DHT22;23318;50.966;5.284;2023-02-18T07:19:47;9.70;99.90
37460;DHT22;23318;50.966;5.284;2023-02-18T07:22:13;9.70;99.90
37460;DHT22;23318;50.966;5.284;2023-02-18T07:24:39;9.70;99.90
37460;DHT22;23318;50.966;5.284;2023-02-18T07:27:04;9.80;99.90
37460;DHT22;23318;50.966;5.284;2023-02-18T07:29:30;9.70;99.90
37460;DHT22;23318;50.966;5.284;2023-02-18T07:31:56;9.80;99.90
37460;DHT22;23318;50.966;5.284;2023-02-18T07:34:21;9.80;99.90
37460;DHT22;23318;50.966;5.284;2023-02-18T07:36:47;9.80;99.90
37460;DHT22;23318;50.966;5.284;2023-02-18T07:39:13;9.80;99.90
37460;DHT22;23318;50.966;5.284;2023-02-18T07:41:39;9.80;99.90
37460;DHT22;23318;50.966;5.284;2023-02-18T07:44:04;9.80;99.90
37460;DHT22;23318;50.966;5.284;2023-02-18T07:46:30;9.80;99.90
37460;DHT22;23318;50.966;5.284;2023-02-18T07:48:56;9.70;99.90
37460;DHT22;23318;50.966;5.284;2023-02-18T07:51:22;9.70;99.90
37460;DHT22;23318;50.966;5.284;2023-02-18T07:53:49;9.80;99.90
37460;DHT22;23318;50.966;5.284;2023-02-18T07:56:14;9.80;99.90
37460;DHT22;23318;50.966;5.284;2023-02-18T07:58:40;9.80;99.90
37460;DHT22;23318;50.966;5.284;2023-02-18T08:01:09;9.90;99.90
37460;DHT22;23318;50.966;5.284;2023-02-18T08:03:36;9.90;99.90
37460;DHT22;23318;50.966;5.284;2023-02-18T08:06:02;9.90;99.90
37460;DHT22;23318;50.966;5.284;2023-02-18T08:08:30;10.00;99.90
37460;DHT22;23318;50.966;5.284;2023-02-18T08:10:58;10.00;99.90
37460;DHT22;23318;50.966;5.284;2023-02-18T08:13:26;10.00;99.90
37460;DHT22;23318;50.966;5.284;2023-02-18T08:15:54;10.00;99.90
37460;DHT22;23318;50.966;5.284;2023-02-18T08:18:21;10.00;99.90
37460;DHT22;23318;50.966;5.284;2023-02-18T08:20:48;10.10;99.90
37460;DHT22;23318;50.966;5.284;2023-02-18T08:23:17;10.10;99.90
37460;DHT22;23318;50.966;5.284;2023-02-18T08:25:50;10.10;99.90
37460;DHT22;23318;50.966;5.284;2023-02-18T08:28:17;10.10;99.90
37460;DHT22;23318;50.966;5.284;2023-02-18T08:30:47;10.10;99.90
37460;DHT22;23318;50.966;5.284;2023-02-18T08:33:13;10.10;99.90
37460;DHT22;23318;50.966;5.284;2023-02-18T08:35:39;10.20;99.90
37460;DHT22;23318;50.966;5.284;2023-02-18T08:38:05;10.30;99.90
37460;DHT22;23318;50.966;5.284;2023-02-18T08:40:30;10.40;99.90
37460;DHT22;23318;50.966;5.284;2023-02-18T08:42:56;10.40;99.90
37460;DHT22;23318;50.966;5.284;2023-02-18T08:45:22;10.40;99.90
37460;DHT22;23318;50.966;5.284;2023-02-18T08:47:47;10.40;99.90
37460;DHT22;23318;50.966;5.284;2023-02-18T08:50:13;10.50;99.90
37460;DHT22;23318;50.966;5.284;2023-02-18T08:52:39;10.40;99.90
37460;DHT22;23318;50.966;5.284;2023-02-18T08:55:05;10.40;99.90
37460;DHT22;23318;50.966;5.284;2023-02-18T08:57:31;10.50;99.90
37460;DHT22;23318;50.966;5.284;2023-02-18T08:59:56;10.50;99.90
37460;DHT22;23318;50.966;5.284;2023-02-18T09:02:22;10.50;99.90
37460;DHT22;23318;50.966;5.284;2023-02-18T09:04:48;10.50;99.90
37460;DHT22;23318;50.966;5.284;2023-02-18T09:07:13;10.50;99.90
37460;DHT22;23318;50.966;5.284;2023-02-18T09:09:39;10.50;99.90
37460;DHT22;23318;50.966;5.284;2023-02-18T09:12:07;10.50;99.90
37460;DHT22;23318;50.966;5.284;2023-02-18T09:14:33;10.60;99.90
37460;DHT22;23318;50.966;5.284;2023-02-18T09:16:59;10.60;99.90
37460;DHT22;23318;50.966;5.284;2023-02-18T09:19:25;10.70;99.90
37460;DHT22;23318;50.966;5.284;2023-02-18T09:21:51;10.60;99.90
37460;DHT22;23318;50.966;5.284;2023-02-18T09:24:21;10.60;99.90
37460;DHT22;23318;50.966;5.284;2023-02-18T09:26:49;10.60;99.90
37460;DHT22;23318;50.966;5.284;2023-02-18T09:29:15;10.70;99.90
37460;DHT22;23318;50.966;5.284;2023-02-18T09:31:40;10.70;99.90
37460;DHT22;23318;50.966;5.284;2023-02-18T09:34:06;10.70;99.90
37460;DHT22;23318;50.966;5.284;2023-02-18T09:36:32;10.70;99.90
37460;DHT22;23318;50.966;5.284;2023-02-18T09:38:58;10.70;99.90
37460;DHT22;23318;50.966;5.284;2023-02-18T09:47:35;10.70;99.90
37460;DHT22;23318;50.966;5.284;2023-02-18T09:49:44;10.70;99.90
37460;DHT22;23318;50.966;5.284;2023-02-18T09:52:35;10.70;99.90
37460;DHT22;23318;50.966;5.284;2023-02-18T09:54:59;10.70;99.90
37460;DHT22;23318;50.966;5.284;2023-02-18T09:57:42;10.90;99.90
37460;DHT22;23318;50.966;5.284;2023-02-18T10:00:19;10.90;99.90
37460;DHT22;23318;50.966;5.284;2023-02-18T10:03:22;10.90;99.90
37460;DHT22;23318;50.966;5.284;2023-02-18T10:06:08;11.00;99.90
37460;DHT22;23318;50.966;5.284;2023-02-18T10:08:37;11.00;99.90
37460;DHT22;23318;50.966;5.284;2023-02-18T10:11:05;10.90;99.90
37460;DHT22;23318;50.966;5.284;2023-02-18T10:13:37;11.00;99.90
37460;DHT22;23318;50.966;5.284;2023-02-18T10:16:04;10.80;99.90
37460;DHT22;23318;50.966;5.284;2023-02-18T10:18:32;10.80;99.90
37460;DHT22;23318;50.966;5.284;2023-02-18T10:21:06;10.80;99.90
37460;DHT22;23318;50.966;5.284;2023-02-18T10:23:36;10.70;99.90
37460;DHT22;23318;50.966;5.284;2023-02-18T10:26:06;10.70;99.90
37460;DHT22;23318;50.966;5.284;2023-02-18T10:28:35;10.70;99.90
37460;DHT22;23318;50.966;5.284;2023-02-18T10:31:04;10.60;99.90
37460;DHT22;23318;50.966;5.284;2023-02-18T10:44:42;10.60;99.90
37460;DHT22;23318;50.966;5.284;2023-02-18T10:50:02;10.70;99.90
37460;DHT22;23318;50.966;5.284;2023-02-18T10:52:43;10.80;99.90
37460;DHT22;23318;50.966;5.284;2023-02-18T10:55:13;10.80;99.90
37460;DHT22;23318;50.966;5.284;2023-02-18T10:57:50;10.80;99.90
37460;DHT22;23318;50.966;5.284;2023-02-18T11:00:17;10.90;99.90
37460;DHT22;23318;50.966;5.284;2023-02-18T11:02:43;10.80;99.90
37460;DHT22;23318;50.966;5.284;2023-02-18T11:05:23;10.80;99.90
37460;DHT22;23318;50.966;5.284;2023-02-18T11:07:52;10.80;99.90
37460;DHT22;23318;50.966;5.284;2023-02-18T11:10:25;10.80;99.90
37460;DHT22;23318;50.966;5.284;2023-02-18T11:13:12;10.70;99.90
37460;DHT22;23318;50.966;5.284;2023-02-18T11:15:56;10.90;99.90
37460;DHT22;23318;50.966;5.284;2023-02-18T11:18:27;10.90;99.90
37460;DHT22;23318;50.966;5.284;2023-02-18T11:21:02;10.90;99.90
37460;DHT22;23318;50.966;5.284;2023-02-18T11:23:28;11.00;99.90
37460;DHT22;23318;50.966;5.284;2023-02-18T11:26:06;10.90;99.90
37460;DHT22;23318;50.966;5.284;2023-02-18T11:28:50;10.90;99.90
37460;DHT22;23318;50.966;5.284;2023-02-18T11:31:21;11.00;99.90
37460;DHT22;23318;50.966;5.284;2023-02-18T11:33:50;11.00;99.90
37460;DHT22;23318;50.966;5.284;2023-02-18T11:36:27;11.00;99.90
37460;DHT22;23318;50.966;5.284;2023-02-18T11:39:02;11.00;99.90
37460;DHT22;23318;50.966;5.284;2023-02-18T11:41:40;11.10;99.90
37460;DHT22;23318;50.966;5.284;2023-02-18T11:46:57;11.10;99.90
37460;DHT22;23318;50.966;5.284;2023-02-18T11:49:24;11.10;99.90
37460;DHT22;23318;50.966;5.284;2023-02-18T11:51:50;11.00;99.90
37460;DHT22;23318;50.966;5.284;2023-02-18T11:54:25;11.00;99.90
37460;DHT22;23318;50.966;5.284;2023-02-18T11:56:57;10.80;99.90
37460;DHT22;23318;50.966;5.284;2023-02-18T11:59:25;10.70;99.90
37460;DHT22;23318;50.966;5.284;2023-02-18T12:02:23;10.60;99.90
37460;DHT22;23318;50.966;5.284;2023-02-18T12:04:49;10.60;99.90
37460;DHT22;23318;50.966;5.284;2023-02-18T12:07:23;10.50;99.90
37460;DHT22;23318;50.966;5.284;2023-02-18T12:09:54;10.50;99.90
37460;DHT22;23318;50.966;5.284;2023-02-18T12:12:30;10.40;99.90
37460;DHT22;23318;50.966;5.284;2023-02-18T12:14:58;10.30;99.90
37460;DHT22;23318;50.966;5.284;2023-02-18T12:18:23;10.30;99.90
37460;DHT22;23318;50.966;5.284;2023-02-18T12:20:35;10.30;99.90
37460;DHT22;23318;50.966;5.284;2023-02-18T12:31:36;10.40;99.90
37460;DHT22;23318;50.966;5.284;2023-02-18T12:42:59;10.60;99.90
37460;DHT22;23318;50.966;5.284;2023-02-18T12:59:09;10.60;99.90
37460;DHT22;23318;50.966;5.284;2023-02-18T13:15:40;10.60;99.90
37460;DHT22;23318;50.966;5.284;2023-02-18T13:18:24;10.60;99.90
37460;DHT22;23318;50.966;5.284;2023-02-18T13:21:08;10.60;99.90
37460;DHT22;23318;50.966;5.284;2023-02-18T13:24:05;10.60;99.90
37460;DHT22;23318;50.966;5.284;2023-02-18T13:26:32;10.60;99.90
37460;DHT22;23318;50.966;5.284;2023-02-18T13:32:16;10.70;99.90
37460;DHT22;23318;50.966;5.284;2023-02-18T13:34:59;10.70;99.90
37460;DHT22;23318;50.966;5.284;2023-02-18T13:40:28;10.80;99.90
37460;DHT22;23318;50.966;5.284;2023-02-18T13:46:16;10.60;99.90
37460;DHT22;23318;50.966;5.284;2023-02-18T13:56:40;10.60;99.90
37460;DHT22;23318;50.966;5.284;2023-02-18T14:01:54;10.50;99.90
37460;DHT22;23318;50.966;5.284;2023-02-18T14:07:26;10.60;99.90
37460;DHT22;23318;50.966;5.284;2023-02-18T14:09:58;10.70;99.90
37460;DHT22;23318;50.966;5.284;2023-02-18T14:14:58;10.60;99.90
37460;DHT22;23318;50.966;5.284;2023-02-18T14:17:30;10.50;99.90
37460;DHT22;23318;50.966;5.284;2023-02-18T14:27:37;10.40;99.90
37460;DHT22;23318;50.966;5.284;2023-02-18T14:32:49;10.50;99.90
37460;DHT22;23318;50.966;5.284;2023-02-18T14:51:24;10.40;99.90
37460;DHT22;23318;50.966;5.284;2023-02-18T14:53:51;10.40;99.90
37460;DHT22;23318;50.966;5.284;2023-02-18T14:56:19;10.30;99.90
37460;DHT22;23318;50.966;5.284;2023-02-18T14:58:56;10.40;99.90
37460;DHT22;23318;50.966;5.284;2023-02-18T15:01:30;10.40;99.90
37460;DHT22;23318;50.966;5.284;2023-02-18T15:03:56;10.40;99.90
37460;DHT22;23318;50.966;5.284;2023-02-18T15:06:41;10.40;99.90
37460;DHT22;23318;50.966;5.284;2023-02-18T15:09:32;10.40;99.90
37460;DHT22;23318;50.966;5.284;2023-02-18T15:12:05;10.40;99.90
37460;DHT22;23318;50.966;5.284;2023-02-18T15:14:37;10.40;99.90
37460;DHT22;23318;50.966;5.284;2023-02-18T15:17:06;10.40;99.90
37460;DHT22;23318;50.966;5.284;2023-02-18T15:19:43;10.50;99.90
37460;DHT22;23318;50.966;5.284;2023-02-18T15:22:20;10.40;99.90
37460;DHT22;23318;50.966;5.284;2023-02-18T15:24:46;10.50;99.90
37460;DHT22;23318;50.966;5.284;2023-02-18T15:27:15;10.40;99.90
37460;DHT22;23318;50.966;5.284;2023-02-18T15:29:41;10.40;99.90
37460;DHT22;23318;50.966;5.284;2023-02-18T15:32:33;10.40;99.90
37460;DHT22;23318;50.966;5.284;2023-02-18T15:35:02;10.40;99.90
37460;DHT22;23318;50.966;5.284;2023-02-18T15:37:29;10.50;99.90
37460;DHT22;23318;50.966;5.284;2023-02-18T15:39:55;10.50;99.90
37460;DHT22;23318;50.966;5.284;2023-02-18T15:44:49;10.40;99.90
37460;DHT22;23318;50.966;5.284;2023-02-18T15:47:15;10.40;99.90
37460;DHT22;23318;50.966;5.284;2023-02-18T15:49:46;10.40;99.90
37460;DHT22;23318;50.966;5.284;2023-02-18T15:52:13;10.40;99.90
37460;DHT22;23318;50.966;5.284;2023-02-18T15:54:40;10.40;99.90
37460;DHT22;23318;50.966;5.284;2023-02-18T15:57:11;10.40;99.90
37460;DHT22;23318;50.966;5.284;2023-02-18T15:59:44;10.50;99.90
37460;DHT22;23318;50.966;5.284;2023-02-18T16:04:57;10.50;99.90
37460;DHT22;23318;50.966;5.284;2023-02-18T16:07:32;10.50;99.90
37460;DHT22;23318;50.966;5.284;2023-02-18T16:12:33;10.60;99.90
37460;DHT22;23318;50.966;5.284;2023-02-18T16:15:01;10.60;99.90
37460;DHT22;23318;50.966;5.284;2023-02-18T16:17:28;10.70;99.90
37460;DHT22;23318;50.966;5.284;2023-02-18T16:20:13;10.70;99.90
37460;DHT22;23318;50.966;5.284;2023-02-18T16:22:45;10.70;99.90
37460;DHT22;23318;50.966;5.284;2023-02-18T16:25:43;10.70;99.90
37460;DHT22;23318;50.966;5.284;2023-02-18T16:30:38;10.70;99.90
37460;DHT22;23318;50.966;5.284;2023-02-18T16:33:07;10.70;99.90
37460;DHT22;23318;50.966;5.284;2023-02-18T16:35:32;10.60;99.90
37460;DHT22;23318;50.966;5.284;2023-02-18T16:37:58;10.50;99.90
37460;DHT22;23318;50.966;5.284;2023-02-18T16:40:27;10.50;99.90
37460;DHT22;23318;50.966;5.284;2023-02-18T16:42:55;10.50;99.90
37460;DHT22;23318;50.966;5.284;2023-02-18T16:45:32;10.50;99.90
37460;DHT22;23318;50.966;5.284;2023-02-18T16:47:58;10.40;99.90
37460;DHT22;23318;50.966;5.284;2023-02-18T16:50:27;10.50;99.90
37460;DHT22;23318;50.966;5.284;2023-02-18T16:52:55;10.50;99.90
37460;DHT22;23318;50.966;5.284;2023-02-18T16:55:25;10.50;99.90
37460;DHT22;23318;50.966;5.284;2023-02-18T16:57:51;10.40;99.90
37460;DHT22;23318;50.966;5.284;2023-02-18T17:00:17;10.40;99.90
37460;DHT22;23318;50.966;5.284;2023-02-18T17:02:49;10.40;99.90
37460;DHT22;23318;50.966;5.284;2023-02-18T17:05:20;10.50;99.90
37460;DHT22;23318;50.966;5.284;2023-02-18T17:07:46;10.50;99.90
37460;DHT22;23318;50.966;5.284;2023-02-18T17:10:12;10.50;99.90
37460;DHT22;23318;50.966;5.284;2023-02-18T17:12:38;10.50;99.90
37460;DHT22;23318;50.966;5.284;2023-02-18T17:15:14;10.50;99.90
37460;DHT22;23318;50.966;5.284;2023-02-18T17:17:45;10.50;99.90
37460;DHT22;23318;50.966;5.284;2023-02-18T17:20:11;10.50;99.90
37460;DHT22;23318;50.966;5.284;2023-02-18T17:22:40;10.50;99.90
37460;DHT22;23318;50.966;5.284;2023-02-18T17:25:33;10.50;99.90
37460;DHT22;23318;50.966;5.284;2023-02-18T17:28:00;10.50;99.90
37460;DHT22;23318;50.966;5.284;2023-02-18T17:30:25;10.50;99.90
37460;DHT22;23318;50.966;5.284;2023-02-18T17:32:51;10.50;99.90
37460;DHT22;23318;50.966;5.284;2023-02-18T17:35:19;10.50;99.90
37460;DHT22;23318;50.966;5.284;2023-02-18T17:37:45;10.60;99.90
37460;DHT22;23318;50.966;5.284;2023-02-18T17:40:24;10.60;99.90
37460;DHT22;23318;50.966;5.284;2023-02-18T17:42:50;10.60;99.90
37460;DHT22;23318;50.966;5.284;2023-02-18T17:45:28;10.50;99.90
37460;DHT22;23318;50.966;5.284;2023-02-18T17:47:58;10.60;99.90
37460;DHT22;23318;50.966;5.284;2023-02-18T17:50:26;10.50;99.90
37460;DHT22;23318;50.966;5.284;2023-02-18T17:52:52;10.60;99.90
37460;DHT22;23318;50.966;5.284;2023-02-18T17:55:24;10.60;99.90
37460;DHT22;23318;50.966;5.284;2023-02-18T17:57:51;10.60;99.90
37460;DHT22;23318;50.966;5.284;2023-02-18T18:00:32;10.60;99.90
37460;DHT22;23318;50.966;5.284;2023-02-18T18:02:59;10.60;99.90
37460;DHT22;23318;50.966;5.284;2023-02-18T18:05:29;10.60;99.90
37460;DHT22;23318;50.966;5.284;2023-02-18T18:07:56;10.60;99.90
37460;DHT22;23318;50.966;5.284;2023-02-18T18:10:24;10.60;99.90
37460;DHT22;23318;50.966;5.284;2023-02-18T18:12:53;10.60;99.90
37460;DHT22;23318;50.966;5.284;2023-02-18T18:17:45;10.60;99.90
37460;DHT22;23318;50.966;5.284;2023-02-18T18:20:10;10.60;99.90
37460;DHT22;23318;50.966;5.284;2023-02-18T18:22:36;10.60;99.90
37460;DHT22;23318;50.966;5.284;2023-02-18T18:25:14;10.50;99.90
37460;DHT22;23318;50.966;5.284;2023-02-18T18:27:41;10.40;99.90
37460;DHT22;23318;50.966;5.284;2023-02-18T18:30:07;10.50;99.90
37460;DHT22;23318;50.966;5.284;2023-02-18T18:32:33;10.50;99.90